SAWH/USH METAR and TAF weather

Enter ICAO airport designator
Station Type Date Time Source
SAWH METAR 2018/12/12 08:00 UTC NOAA

SAWH 120800Z 00000KT 9999 SCT040 BKN100 09/03 Q0999


Station Type Date Time Source
SAWH Decoded METAR 2018/12/12 08:00 UTC NOAA

Ushuaia Aerodrome, Argentina (SAWH) 54-48S 068-19W 14M
Dec 12, 2018 - 03:00 AM EST / 2018.12.12 0800 UTC
Wind: Calm:0
Visibility: greater than 7 mile(s):0
Sky conditions: mostly cloudy
Temperature: 48 F (9 C)
Dew Point: 37 F (3 C)
Relative Humidity: 66%
Pressure (altimeter): 29.50 in. Hg (0999 hPa)
ob: SAWH 120800Z 00000KT 9999 SCT040 BKN100 09/03 Q0999
cycle: 8

Station Type Date Time Source
SAWH TAF 2018/12/12 06:22 UTC NOAA

TAF SAWH 120500Z 1206/1306 VRB07KT 9999 SCT040 BKN090 TX19/1220Z TN06/1210Z
BECMG 1211/1214 30020KT
TEMPO 1218/1302 8000 SHRA BKN025


Example: see airport list